sensor_id;sensor_type;location;lat;lon;timestamp;temperature;humidity
5520;DHT22;2782;52.362;10.012;2023-01-13T00:00:44;17.80;79.90
5520;DHT22;2782;52.362;10.012;2023-01-13T00:01:45;17.80;79.70
5520;DHT22;2782;52.362;10.012;2023-01-13T00:02:46;17.80;79.70
5520;DHT22;2782;52.362;10.012;2023-01-13T00:03:48;17.80;79.70
5520;DHT22;2782;52.362;10.012;2023-01-13T00:04:48;17.80;79.50
5520;DHT22;2782;52.362;10.012;2023-01-13T00:05:50;17.80;79.60
5520;DHT22;2782;52.362;10.012;2023-01-13T00:06:50;17.80;79.50
5520;DHT22;2782;52.362;10.012;2023-01-13T00:07:52;17.80;79.50
5520;DHT22;2782;52.362;10.012;2023-01-13T00:08:54;17.80;79.40
5520;DHT22;2782;52.362;10.012;2023-01-13T00:09:55;17.80;79.30
5520;DHT22;2782;52.362;10.012;2023-01-13T00:10:56;17.80;79.10
5520;DHT22;2782;52.362;10.012;2023-01-13T00:11:58;17.80;79.00
5520;DHT22;2782;52.362;10.012;2023-01-13T00:12:58;17.80;78.80
5520;DHT22;2782;52.362;10.012;2023-01-13T00:14:00;17.80;78.80
5520;DHT22;2782;52.362;10.012;2023-01-13T00:15:02;17.70;78.80
5520;DHT22;2782;52.362;10.012;2023-01-13T00:16:06;17.70;78.60
5520;DHT22;2782;52.362;10.012;2023-01-13T00:17:07;17.70;78.60
5520;DHT22;2782;52.362;10.012;2023-01-13T00:18:08;17.70;78.70
5520;DHT22;2782;52.362;10.012;2023-01-13T00:19:09;17.70;78.70
5520;DHT22;2782;52.362;10.012;2023-01-13T00:20:11;17.70;78.60
5520;DHT22;2782;52.362;10.012;2023-01-13T00:21:14;17.70;78.80
5520;DHT22;2782;52.362;10.012;2023-01-13T00:22:16;17.70;78.60
5520;DHT22;2782;52.362;10.012;2023-01-13T00:23:17;17.70;78.50
5520;DHT22;2782;52.362;10.012;2023-01-13T00:24:18;17.70;78.50
5520;DHT22;2782;52.362;10.012;2023-01-13T00:25:19;17.70;78.70
5520;DHT22;2782;52.362;10.012;2023-01-13T00:26:25;17.70;78.60
5520;DHT22;2782;52.362;10.012;2023-01-13T00:27:26;17.70;78.60
5520;DHT22;2782;52.362;10.012;2023-01-13T00:28:27;17.70;78.50
5520;DHT22;2782;52.362;10.012;2023-01-13T00:29:28;17.70;78.60
5520;DHT22;2782;52.362;10.012;2023-01-13T00:30:31;17.70;78.50
5520;DHT22;2782;52.362;10.012;2023-01-13T00:31:32;17.70;78.50
5520;DHT22;2782;52.362;10.012;2023-01-13T00:32:33;17.70;78.40
5520;DHT22;2782;52.362;10.012;2023-01-13T00:33:34;17.70;78.40
5520;DHT22;2782;52.362;10.012;2023-01-13T00:34:36;17.70;78.50
5520;DHT22;2782;52.362;10.012;2023-01-13T00:35:36;17.70;78.50
5520;DHT22;2782;52.362;10.012;2023-01-13T00:36:38;17.70;78.40
5520;DHT22;2782;52.362;10.012;2023-01-13T00:37:38;17.70;78.30
5520;DHT22;2782;52.362;10.012;2023-01-13T00:38:41;17.70;78.30
5520;DHT22;2782;52.362;10.012;2023-01-13T00:39:42;17.70;78.40
5520;DHT22;2782;52.362;10.012;2023-01-13T00:40:54;17.60;78.20
5520;DHT22;2782;52.362;10.012;2023-01-13T00:41:54;17.70;78.40
5520;DHT22;2782;52.362;10.012;2023-01-13T00:43:13;17.70;78.30
5520;DHT22;2782;52.362;10.012;2023-01-13T00:44:24;17.60;78.00
5520;DHT22;2782;52.362;10.012;2023-01-13T00:45:25;17.60;78.10
5520;DHT22;2782;52.362;10.012;2023-01-13T00:46:27;17.60;78.00
5520;DHT22;2782;52.362;10.012;2023-01-13T00:47:28;17.60;78.00
5520;DHT22;2782;52.362;10.012;2023-01-13T00:48:29;17.60;78.00
5520;DHT22;2782;52.362;10.012;2023-01-13T00:49:31;17.60;78.00
5520;DHT22;2782;52.362;10.012;2023-01-13T00:50:32;17.60;78.00
5520;DHT22;2782;52.362;10.012;2023-01-13T00:51:34;17.60;78.00
5520;DHT22;2782;52.362;10.012;2023-01-13T00:52:34;17.60;77.90
5520;DHT22;2782;52.362;10.012;2023-01-13T00:53:37;17.60;78.00
5520;DHT22;2782;52.362;10.012;2023-01-13T00:54:39;17.60;77.90
5520;DHT22;2782;52.362;10.012;2023-01-13T00:55:40;17.60;78.00
5520;DHT22;2782;52.362;10.012;2023-01-13T00:56:41;17.60;77.80
5520;DHT22;2782;52.362;10.012;2023-01-13T00:57:42;17.50;77.60
5520;DHT22;2782;52.362;10.012;2023-01-13T00:58:44;17.60;77.70
5520;DHT22;2782;52.362;10.012;2023-01-13T00:59:46;17.60;77.60
5520;DHT22;2782;52.362;10.012;2023-01-13T01:00:47;17.50;77.40
5520;DHT22;2782;52.362;10.012;2023-01-13T01:01:50;17.60;77.40
5520;DHT22;2782;52.362;10.012;2023-01-13T01:02:51;17.60;77.30
5520;DHT22;2782;52.362;10.012;2023-01-13T01:03:53;17.60;77.30
5520;DHT22;2782;52.362;10.012;2023-01-13T01:04:54;17.60;77.30
5520;DHT22;2782;52.362;10.012;2023-01-13T01:05:56;17.60;77.30
5520;DHT22;2782;52.362;10.012;2023-01-13T01:06:56;17.60;77.30
5520;DHT22;2782;52.362;10.012;2023-01-13T01:07:58;17.60;77.30
5520;DHT22;2782;52.362;10.012;2023-01-13T01:08:59;17.60;77.20
5520;DHT22;2782;52.362;10.012;2023-01-13T01:10:00;17.60;77.20
5520;DHT22;2782;52.362;10.012;2023-01-13T01:11:02;17.60;77.40
5520;DHT22;2782;52.362;10.012;2023-01-13T01:12:04;17.60;77.20
5520;DHT22;2782;52.362;10.012;2023-01-13T01:13:05;17.60;77.20
5520;DHT22;2782;52.362;10.012;2023-01-13T01:14:06;17.60;77.30
5520;DHT22;2782;52.362;10.012;2023-01-13T01:15:09;17.60;77.20
5520;DHT22;2782;52.362;10.012;2023-01-13T01:16:13;17.60;77.10
5520;DHT22;2782;52.362;10.012;2023-01-13T01:17:15;17.60;77.10
5520;DHT22;2782;52.362;10.012;2023-01-13T01:18:17;17.60;77.10
5520;DHT22;2782;52.362;10.012;2023-01-13T01:19:18;17.60;77.00
5520;DHT22;2782;52.362;10.012;2023-01-13T01:20:19;17.70;77.10
5520;DHT22;2782;52.362;10.012;2023-01-13T01:21:21;17.60;76.90
5520;DHT22;2782;52.362;10.012;2023-01-13T01:22:23;17.70;77.00
5520;DHT22;2782;52.362;10.012;2023-01-13T01:23:24;17.70;77.60
5520;DHT22;2782;52.362;10.012;2023-01-13T01:24:25;17.70;76.90
5520;DHT22;2782;52.362;10.012;2023-01-13T01:25:26;17.70;76.80
5520;DHT22;2782;52.362;10.012;2023-01-13T01:26:28;17.70;76.80
5520;DHT22;2782;52.362;10.012;2023-01-13T01:27:30;17.70;76.70
5520;DHT22;2782;52.362;10.012;2023-01-13T01:28:31;17.70;76.70
5520;DHT22;2782;52.362;10.012;2023-01-13T01:29:33;17.70;76.60
5520;DHT22;2782;52.362;10.012;2023-01-13T01:30:34;17.70;76.70
5520;DHT22;2782;52.362;10.012;2023-01-13T01:31:35;17.70;76.60
5520;DHT22;2782;52.362;10.012;2023-01-13T01:32:37;17.70;76.60
5520;DHT22;2782;52.362;10.012;2023-01-13T01:33:39;17.70;76.60
5520;DHT22;2782;52.362;10.012;2023-01-13T01:34:40;17.70;76.50
5520;DHT22;2782;52.362;10.012;2023-01-13T01:35:42;17.70;76.50
5520;DHT22;2782;52.362;10.012;2023-01-13T01:36:42;17.70;76.50
5520;DHT22;2782;52.362;10.012;2023-01-13T01:37:44;17.70;76.50
5520;DHT22;2782;52.362;10.012;2023-01-13T01:38:45;17.70;76.40
5520;DHT22;2782;52.362;10.012;2023-01-13T01:39:47;17.70;76.30
5520;DHT22;2782;52.362;10.012;2023-01-13T01:40:47;17.70;76.40
5520;DHT22;2782;52.362;10.012;2023-01-13T01:41:49;17.70;76.40
5520;DHT22;2782;52.362;10.012;2023-01-13T01:43:13;17.70;76.20
5520;DHT22;2782;52.362;10.012;2023-01-13T01:44:54;17.70;76.10
5520;DHT22;2782;52.362;10.012;2023-01-13T01:45:56;17.70;76.20
5520;DHT22;2782;52.362;10.012;2023-01-13T01:46:57;17.70;76.20
5520;DHT22;2782;52.362;10.012;2023-01-13T01:48:02;17.70;76.20
5520;DHT22;2782;52.362;10.012;2023-01-13T01:49:13;17.70;76.10
5520;DHT22;2782;52.362;10.012;2023-01-13T01:50:17;17.70;76.20
5520;DHT22;2782;52.362;10.012;2023-01-13T01:51:18;17.70;76.20
5520;DHT22;2782;52.362;10.012;2023-01-13T01:52:23;17.70;76.10
5520;DHT22;2782;52.362;10.012;2023-01-13T01:53:26;17.70;76.10
5520;DHT22;2782;52.362;10.012;2023-01-13T01:54:32;17.70;76.10
5520;DHT22;2782;52.362;10.012;2023-01-13T01:55:35;17.70;76.00
5520;DHT22;2782;52.362;10.012;2023-01-13T01:56:39;17.70;75.90
5520;DHT22;2782;52.362;10.012;2023-01-13T01:57:43;17.70;76.00
5520;DHT22;2782;52.362;10.012;2023-01-13T01:58:48;17.70;75.90
5520;DHT22;2782;52.362;10.012;2023-01-13T01:59:50;17.70;75.90
5520;DHT22;2782;52.362;10.012;2023-01-13T02:00:52;17.70;75.90
5520;DHT22;2782;52.362;10.012;2023-01-13T02:01:53;17.70;75.80
5520;DHT22;2782;52.362;10.012;2023-01-13T02:02:55;17.70;75.80
5520;DHT22;2782;52.362;10.012;2023-01-13T02:04:01;17.70;75.80
5520;DHT22;2782;52.362;10.012;2023-01-13T02:05:06;17.70;75.70
5520;DHT22;2782;52.362;10.012;2023-01-13T02:06:07;17.70;75.70
5520;DHT22;2782;52.362;10.012;2023-01-13T02:07:09;17.70;75.60
5520;DHT22;2782;52.362;10.012;2023-01-13T02:08:11;17.70;75.60
5520;DHT22;2782;52.362;10.012;2023-01-13T02:09:14;17.70;75.60
5520;DHT22;2782;52.362;10.012;2023-01-13T02:10:17;17.70;75.60
5520;DHT22;2782;52.362;10.012;2023-01-13T02:11:30;17.70;75.50
5520;DHT22;2782;52.362;10.012;2023-01-13T02:12:49;17.70;75.60
5520;DHT22;2782;52.362;10.012;2023-01-13T02:13:52;17.70;75.50
5520;DHT22;2782;52.362;10.012;2023-01-13T02:14:52;17.70;75.50
5520;DHT22;2782;52.362;10.012;2023-01-13T02:16:01;17.70;75.50
5520;DHT22;2782;52.362;10.012;2023-01-13T02:17:09;17.70;75.40
5520;DHT22;2782;52.362;10.012;2023-01-13T02:18:34;17.70;75.30
5520;DHT22;2782;52.362;10.012;2023-01-13T02:21:40;17.70;75.40
5520;DHT22;2782;52.362;10.012;2023-01-13T02:23:07;17.70;75.30
5520;DHT22;2782;52.362;10.012;2023-01-13T02:24:52;17.60;75.30
5520;DHT22;2782;52.362;10.012;2023-01-13T02:26:20;17.60;75.40
5520;DHT22;2782;52.362;10.012;2023-01-13T02:27:43;17.60;75.30
5520;DHT22;2782;52.362;10.012;2023-01-13T02:29:06;17.60;75.30
5520;DHT22;2782;52.362;10.012;2023-01-13T02:30:41;17.60;75.20
5520;DHT22;2782;52.362;10.012;2023-01-13T02:32:15;17.60;75.30
5520;DHT22;2782;52.362;10.012;2023-01-13T02:34:49;17.50;75.20
5520;DHT22;2782;52.362;10.012;2023-01-13T02:35:58;17.60;75.20
5520;DHT22;2782;52.362;10.012;2023-01-13T02:37:04;17.50;75.10
5520;DHT22;2782;52.362;10.012;2023-01-13T02:38:08;17.60;75.10
5520;DHT22;2782;52.362;10.012;2023-01-13T02:39:15;17.50;75.00
5520;DHT22;2782;52.362;10.012;2023-01-13T02:40:21;17.50;74.90
5520;DHT22;2782;52.362;10.012;2023-01-13T02:41:27;17.50;74.90
5520;DHT22;2782;52.362;10.012;2023-01-13T02:42:49;17.60;74.90
5520;DHT22;2782;52.362;10.012;2023-01-13T02:44:11;17.60;75.00
5520;DHT22;2782;52.362;10.012;2023-01-13T02:45:19;17.50;74.80
5520;DHT22;2782;52.362;10.012;2023-01-13T02:46:27;17.60;74.90
5520;DHT22;2782;52.362;10.012;2023-01-13T02:47:32;17.60;74.90
5520;DHT22;2782;52.362;10.012;2023-01-13T02:48:35;17.50;74.80
5520;DHT22;2782;52.362;10.012;2023-01-13T02:49:40;17.50;74.80
5520;DHT22;2782;52.362;10.012;2023-01-13T02:50:47;17.50;74.70
5520;DHT22;2782;52.362;10.012;2023-01-13T02:51:51;17.60;74.80
5520;DHT22;2782;52.362;10.012;2023-01-13T02:52:57;17.60;74.80
5520;DHT22;2782;52.362;10.012;2023-01-13T02:54:03;17.60;74.70
5520;DHT22;2782;52.362;10.012;2023-01-13T02:55:09;17.50;74.70
5520;DHT22;2782;52.362;10.012;2023-01-13T02:56:14;17.60;74.70
5520;DHT22;2782;52.362;10.012;2023-01-13T02:57:16;17.50;74.60
5520;DHT22;2782;52.362;10.012;2023-01-13T02:58:22;17.50;74.60
5520;DHT22;2782;52.362;10.012;2023-01-13T02:59:23;17.50;74.60
5520;DHT22;2782;52.362;10.012;2023-01-13T03:00:27;17.50;74.50
5520;DHT22;2782;52.362;10.012;2023-01-13T03:01:29;17.50;74.50
5520;DHT22;2782;52.362;10.012;2023-01-13T03:05:41;17.50;74.70
5520;DHT22;2782;52.362;10.012;2023-01-13T03:06:50;17.50;74.50
5520;DHT22;2782;52.362;10.012;2023-01-13T03:08:15;17.50;74.50
5520;DHT22;2782;52.362;10.012;2023-01-13T03:09:25;17.50;74.60
5520;DHT22;2782;52.362;10.012;2023-01-13T03:10:39;17.50;74.60
5520;DHT22;2782;52.362;10.012;2023-01-13T03:11:55;17.50;74.60
5520;DHT22;2782;52.362;10.012;2023-01-13T03:13:17;17.50;74.60
5520;DHT22;2782;52.362;10.012;2023-01-13T03:14:26;17.50;74.60
5520;DHT22;2782;52.362;10.012;2023-01-13T03:15:36;17.50;74.60
5520;DHT22;2782;52.362;10.012;2023-01-13T03:16:55;17.50;74.60
5520;DHT22;2782;52.362;10.012;2023-01-13T03:18:06;17.50;74.60
5520;DHT22;2782;52.362;10.012;2023-01-13T03:19:15;17.50;74.60
5520;DHT22;2782;52.362;10.012;2023-01-13T03:20:24;17.50;74.60
5520;DHT22;2782;52.362;10.012;2023-01-13T03:21:31;17.50;74.60
5520;DHT22;2782;52.362;10.012;2023-01-13T03:22:39;17.50;74.60
5520;DHT22;2782;52.362;10.012;2023-01-13T03:23:48;17.50;74.60
5520;DHT22;2782;52.362;10.012;2023-01-13T03:24:54;17.50;74.60
5520;DHT22;2782;52.362;10.012;2023-01-13T03:26:02;17.50;74.60
5520;DHT22;2782;52.362;10.012;2023-01-13T03:27:09;17.50;74.60
5520;DHT22;2782;52.362;10.012;2023-01-13T03:28:17;17.40;74.50
5520;DHT22;2782;52.362;10.012;2023-01-13T03:29:22;17.50;74.60
5520;DHT22;2782;52.362;10.012;2023-01-13T03:30:27;17.50;74.60
5520;DHT22;2782;52.362;10.012;2023-01-13T03:31:35;17.50;74.60
5520;DHT22;2782;52.362;10.012;2023-01-13T03:32:40;17.40;74.40
5520;DHT22;2782;52.362;10.012;2023-01-13T03:33:46;17.50;74.60
5520;DHT22;2782;52.362;10.012;2023-01-13T03:34:51;17.50;74.60
5520;DHT22;2782;52.362;10.012;2023-01-13T03:35:56;17.40;74.50
5520;DHT22;2782;52.362;10.012;2023-01-13T03:37:01;17.50;74.60
5520;DHT22;2782;52.362;10.012;2023-01-13T03:38:06;17.50;74.60
5520;DHT22;2782;52.362;10.012;2023-01-13T03:39:12;17.40;74.50
5520;DHT22;2782;52.362;10.012;2023-01-13T03:40:19;17.40;74.50
5520;DHT22;2782;52.362;10.012;2023-01-13T03:41:25;17.50;74.50
5520;DHT22;2782;52.362;10.012;2023-01-13T03:42:30;17.50;74.60
5520;DHT22;2782;52.362;10.012;2023-01-13T03:43:35;17.50;74.60
5520;DHT22;2782;52.362;10.012;2023-01-13T03:45:01;17.50;75.30
5520;DHT22;2782;52.362;10.012;2023-01-13T03:46:07;17.50;74.50
5520;DHT22;2782;52.362;10.012;2023-01-13T03:47:14;17.40;74.40
5520;DHT22;2782;52.362;10.012;2023-01-13T03:48:22;17.40;74.40
5520;DHT22;2782;52.362;10.012;2023-01-13T03:49:27;17.40;74.40
5520;DHT22;2782;52.362;10.012;2023-01-13T03:50:36;17.40;74.30
5520;DHT22;2782;52.362;10.012;2023-01-13T03:51:40;17.40;74.20
5520;DHT22;2782;52.362;10.012;2023-01-13T03:52:45;17.40;74.20
5520;DHT22;2782;52.362;10.012;2023-01-13T03:53:50;17.40;74.20
5520;DHT22;2782;52.362;10.012;2023-01-13T03:54:55;17.40;74.20
5520;DHT22;2782;52.362;10.012;2023-01-13T03:56:03;17.40;74.10
5520;DHT22;2782;52.362;10.012;2023-01-13T03:57:09;17.50;74.20
5520;DHT22;2782;52.362;10.012;2023-01-13T03:58:16;17.40;74.30
5520;DHT22;2782;52.362;10.012;2023-01-13T03:59:21;17.40;74.00
5520;DHT22;2782;52.362;10.012;2023-01-13T04:00:28;17.40;74.00
5520;DHT22;2782;52.362;10.012;2023-01-13T04:01:36;17.40;74.00
5520;DHT22;2782;52.362;10.012;2023-01-13T04:02:46;17.40;74.00
5520;DHT22;2782;52.362;10.012;2023-01-13T04:03:55;17.40;74.00
5520;DHT22;2782;52.362;10.012;2023-01-13T04:04:58;17.40;73.90
5520;DHT22;2782;52.362;10.012;2023-01-13T04:06:08;17.40;73.90
5520;DHT22;2782;52.362;10.012;2023-01-13T04:07:15;17.40;73.80
5520;DHT22;2782;52.362;10.012;2023-01-13T04:08:23;17.40;74.20
5520;DHT22;2782;52.362;10.012;2023-01-13T04:09:29;17.40;73.90
5520;DHT22;2782;52.362;10.012;2023-01-13T04:10:35;17.40;73.90
5520;DHT22;2782;52.362;10.012;2023-01-13T04:11:41;17.40;73.90
5520;DHT22;2782;52.362;10.012;2023-01-13T04:12:47;17.40;73.90
5520;DHT22;2782;52.362;10.012;2023-01-13T04:14:02;17.40;73.90
5520;DHT22;2782;52.362;10.012;2023-01-13T04:15:06;17.40;73.90
5520;DHT22;2782;52.362;10.012;2023-01-13T04:16:07;17.40;73.90
5520;DHT22;2782;52.362;10.012;2023-01-13T04:17:10;17.40;73.90
5520;DHT22;2782;52.362;10.012;2023-01-13T04:18:13;17.40;73.90
5520;DHT22;2782;52.362;10.012;2023-01-13T04:19:17;17.40;73.80
5520;DHT22;2782;52.362;10.012;2023-01-13T04:20:17;17.40;73.80
5520;DHT22;2782;52.362;10.012;2023-01-13T04:21:19;17.40;73.80
5520;DHT22;2782;52.362;10.012;2023-01-13T04:22:20;17.40;73.70
5520;DHT22;2782;52.362;10.012;2023-01-13T04:23:22;17.40;73.70
5520;DHT22;2782;52.362;10.012;2023-01-13T04:24:23;17.40;73.80
5520;DHT22;2782;52.362;10.012;2023-01-13T04:25:25;17.40;73.70
5520;DHT22;2782;52.362;10.012;2023-01-13T04:26:25;17.40;73.70
5520;DHT22;2782;52.362;10.012;2023-01-13T04:27:27;17.40;73.70
5520;DHT22;2782;52.362;10.012;2023-01-13T04:28:27;17.40;73.60
5520;DHT22;2782;52.362;10.012;2023-01-13T04:29:29;17.40;73.60
5520;DHT22;2782;52.362;10.012;2023-01-13T04:30:30;17.40;73.60
5520;DHT22;2782;52.362;10.012;2023-01-13T04:31:31;17.30;73.50
5520;DHT22;2782;52.362;10.012;2023-01-13T04:32:32;17.40;73.60
5520;DHT22;2782;52.362;10.012;2023-01-13T04:33:33;17.30;73.50
5520;DHT22;2782;52.362;10.012;2023-01-13T04:34:35;17.40;73.60
5520;DHT22;2782;52.362;10.012;2023-01-13T04:35:37;17.40;73.60
5520;DHT22;2782;52.362;10.012;2023-01-13T04:36:38;17.30;73.40
5520;DHT22;2782;52.362;10.012;2023-01-13T04:37:39;17.40;73.40
5520;DHT22;2782;52.362;10.012;2023-01-13T04:38:40;17.40;73.40
5520;DHT22;2782;52.362;10.012;2023-01-13T04:39:41;17.40;73.40
5520;DHT22;2782;52.362;10.012;2023-01-13T04:40:43;17.30;73.30
5520;DHT22;2782;52.362;10.012;2023-01-13T04:41:44;17.30;73.30
5520;DHT22;2782;52.362;10.012;2023-01-13T04:42:57;17.40;73.40
5520;DHT22;2782;52.362;10.012;2023-01-13T04:43:59;17.30;73.30
5520;DHT22;2782;52.362;10.012;2023-01-13T04:44:59;17.30;74.00
5520;DHT22;2782;52.362;10.012;2023-01-13T04:46:01;17.30;73.30
5520;DHT22;2782;52.362;10.012;2023-01-13T04:47:03;17.30;73.30
5520;DHT22;2782;52.362;10.012;2023-01-13T04:48:05;17.30;73.30
5520;DHT22;2782;52.362;10.012;2023-01-13T04:49:06;17.30;73.30
5520;DHT22;2782;52.362;10.012;2023-01-13T04:50:09;17.30;73.30
5520;DHT22;2782;52.362;10.012;2023-01-13T04:51:10;17.30;73.30
5520;DHT22;2782;52.362;10.012;2023-01-13T04:52:12;17.30;73.30
5520;DHT22;2782;52.362;10.012;2023-01-13T04:53:13;17.30;73.30
5520;DHT22;2782;52.362;10.012;2023-01-13T04:54:14;17.30;73.30
5520;DHT22;2782;52.362;10.012;2023-01-13T04:55:16;17.30;73.30
5520;DHT22;2782;52.362;10.012;2023-01-13T04:56:17;17.30;73.40
5520;DHT22;2782;52.362;10.012;2023-01-13T04:57:19;17.30;73.40
5520;DHT22;2782;52.362;10.012;2023-01-13T04:58:19;17.30;73.40
5520;DHT22;2782;52.362;10.012;2023-01-13T04:59:21;17.30;73.40
5520;DHT22;2782;52.362;10.012;2023-01-13T05:00:22;17.30;73.50
5520;DHT22;2782;52.362;10.012;2023-01-13T05:01:24;17.30;73.50
5520;DHT22;2782;52.362;10.012;2023-01-13T05:02:24;17.30;73.50
5520;DHT22;2782;52.362;10.012;2023-01-13T05:03:26;17.30;73.50
5520;DHT22;2782;52.362;10.012;2023-01-13T05:04:27;17.40;73.60
5520;DHT22;2782;52.362;10.012;2023-01-13T05:05:30;17.40;73.70
5520;DHT22;2782;52.362;10.012;2023-01-13T05:06:31;17.30;73.60
5520;DHT22;2782;52.362;10.012;2023-01-13T05:07:32;17.40;73.70
5520;DHT22;2782;52.362;10.012;2023-01-13T05:08:34;17.40;73.70
5520;DHT22;2782;52.362;10.012;2023-01-13T05:09:34;17.40;73.80
5520;DHT22;2782;52.362;10.012;2023-01-13T05:10:36;17.40;73.80
5520;DHT22;2782;52.362;10.012;2023-01-13T05:11:37;17.40;73.80
5520;DHT22;2782;52.362;10.012;2023-01-13T05:12:56;17.40;73.80
5520;DHT22;2782;52.362;10.012;2023-01-13T05:14:18;17.40;73.80
5520;DHT22;2782;52.362;10.012;2023-01-13T05:15:38;17.40;73.90
5520;DHT22;2782;52.362;10.012;2023-01-13T05:16:58;17.40;74.00
5520;DHT22;2782;52.362;10.012;2023-01-13T05:18:03;17.40;74.10
5520;DHT22;2782;52.362;10.012;2023-01-13T05:19:04;17.40;74.10
5520;DHT22;2782;52.362;10.012;2023-01-13T05:20:06;17.40;74.10
5520;DHT22;2782;52.362;10.012;2023-01-13T05:21:09;17.40;74.10
5520;DHT22;2782;52.362;10.012;2023-01-13T05:22:31;17.50;74.30
5520;DHT22;2782;52.362;10.012;2023-01-13T05:23:50;17.50;74.20
5520;DHT22;2782;52.362;10.012;2023-01-13T05:25:09;17.50;74.30
5520;DHT22;2782;52.362;10.012;2023-01-13T05:26:24;17.50;74.30
5520;DHT22;2782;52.362;10.012;2023-01-13T05:27:25;17.50;74.30
5520;DHT22;2782;52.362;10.012;2023-01-13T05:28:30;17.50;74.40
5520;DHT22;2782;52.362;10.012;2023-01-13T05:29:30;17.50;74.40
5520;DHT22;2782;52.362;10.012;2023-01-13T05:30:36;17.50;74.40
5520;DHT22;2782;52.362;10.012;2023-01-13T05:31:37;17.50;75.10
5520;DHT22;2782;52.362;10.012;2023-01-13T05:32:39;17.50;74.40
5520;DHT22;2782;52.362;10.012;2023-01-13T05:33:39;17.50;74.30
5520;DHT22;2782;52.362;10.012;2023-01-13T05:34:41;17.60;74.40
5520;DHT22;2782;52.362;10.012;2023-01-13T05:35:43;17.50;75.00
5520;DHT22;2782;52.362;10.012;2023-01-13T05:36:46;17.60;74.40
5520;DHT22;2782;52.362;10.012;2023-01-13T05:37:47;17.60;74.40
5520;DHT22;2782;52.362;10.012;2023-01-13T05:38:50;17.60;74.40
5520;DHT22;2782;52.362;10.012;2023-01-13T05:39:51;17.60;74.30
5520;DHT22;2782;52.362;10.012;2023-01-13T05:41:10;17.60;74.30
5520;DHT22;2782;52.362;10.012;2023-01-13T05:42:25;17.60;74.30
5520;DHT22;2782;52.362;10.012;2023-01-13T05:43:45;17.60;74.40
5520;DHT22;2782;52.362;10.012;2023-01-13T05:44:46;17.70;74.50
5520;DHT22;2782;52.362;10.012;2023-01-13T05:45:49;17.60;74.40
5520;DHT22;2782;52.362;10.012;2023-01-13T05:46:51;17.70;74.50
5520;DHT22;2782;52.362;10.012;2023-01-13T05:47:53;17.70;74.60
5520;DHT22;2782;52.362;10.012;2023-01-13T05:48:53;17.70;74.60
5520;DHT22;2782;52.362;10.012;2023-01-13T05:49:55;17.70;74.60
5520;DHT22;2782;52.362;10.012;2023-01-13T05:50:56;17.70;74.60
5520;DHT22;2782;52.362;10.012;2023-01-13T05:51:59;17.70;74.50
5520;DHT22;2782;52.362;10.012;2023-01-13T05:52:59;17.70;74.50
5520;DHT22;2782;52.362;10.012;2023-01-13T05:54:01;17.70;74.50
5520;DHT22;2782;52.362;10.012;2023-01-13T05:55:01;17.70;74.50
5520;DHT22;2782;52.362;10.012;2023-01-13T05:56:04;17.70;74.50
5520;DHT22;2782;52.362;10.012;2023-01-13T05:57:06;17.70;74.40
5520;DHT22;2782;52.362;10.012;2023-01-13T05:58:06;17.70;74.40
5520;DHT22;2782;52.362;10.012;2023-01-13T05:59:08;17.70;74.40
5520;DHT22;2782;52.362;10.012;2023-01-13T06:00:10;17.70;74.30
5520;DHT22;2782;52.362;10.012;2023-01-13T06:01:11;17.70;74.40
5520;DHT22;2782;52.362;10.012;2023-01-13T06:02:13;17.70;74.40
5520;DHT22;2782;52.362;10.012;2023-01-13T06:03:14;17.70;74.50
5520;DHT22;2782;52.362;10.012;2023-01-13T06:04:16;17.80;74.60
5520;DHT22;2782;52.362;10.012;2023-01-13T06:05:16;17.70;74.60
5520;DHT22;2782;52.362;10.012;2023-01-13T06:06:18;17.70;74.90
5520;DHT22;2782;52.362;10.012;2023-01-13T06:07:21;17.80;75.10
5520;DHT22;2782;52.362;10.012;2023-01-13T06:08:22;17.70;75.90
5520;DHT22;2782;52.362;10.012;2023-01-13T06:09:23;17.70;76.50
5520;DHT22;2782;52.362;10.012;2023-01-13T06:10:24;17.70;77.40
5520;DHT22;2782;52.362;10.012;2023-01-13T06:11:26;17.80;77.70
5520;DHT22;2782;52.362;10.012;2023-01-13T06:12:27;17.80;78.60
5520;DHT22;2782;52.362;10.012;2023-01-13T06:13:28;17.70;78.70
5520;DHT22;2782;52.362;10.012;2023-01-13T06:14:30;17.80;78.80
5520;DHT22;2782;52.362;10.012;2023-01-13T06:15:39;17.80;79.20
5520;DHT22;2782;52.362;10.012;2023-01-13T06:16:40;17.80;79.60
5520;DHT22;2782;52.362;10.012;2023-01-13T06:17:41;17.80;80.30
5520;DHT22;2782;52.362;10.012;2023-01-13T06:18:43;17.80;80.60
5520;DHT22;2782;52.362;10.012;2023-01-13T06:19:44;17.80;80.80
5520;DHT22;2782;52.362;10.012;2023-01-13T06:20:46;17.80;81.00
5520;DHT22;2782;52.362;10.012;2023-01-13T06:21:47;17.80;81.30
5520;DHT22;2782;52.362;10.012;2023-01-13T06:22:51;17.80;81.60
5520;DHT22;2782;52.362;10.012;2023-01-13T06:23:53;17.80;82.40
5520;DHT22;2782;52.362;10.012;2023-01-13T06:24:54;17.80;82.10
5520;DHT22;2782;52.362;10.012;2023-01-13T06:26:00;17.90;83.30
5520;DHT22;2782;52.362;10.012;2023-01-13T06:27:05;17.90;83.50
5520;DHT22;2782;52.362;10.012;2023-01-13T06:28:07;17.80;83.80
5520;DHT22;2782;52.362;10.012;2023-01-13T06:29:09;17.90;84.10
5520;DHT22;2782;52.362;10.012;2023-01-13T06:30:13;17.90;84.40
5520;DHT22;2782;52.362;10.012;2023-01-13T06:31:15;17.90;84.70
5520;DHT22;2782;52.362;10.012;2023-01-13T06:32:18;17.90;84.80
5520;DHT22;2782;52.362;10.012;2023-01-13T06:33:25;17.90;85.10
5520;DHT22;2782;52.362;10.012;2023-01-13T06:34:27;17.90;85.30
5520;DHT22;2782;52.362;10.012;2023-01-13T06:35:32;17.90;85.60
5520;DHT22;2782;52.362;10.012;2023-01-13T06:36:38;18.00;86.10
5520;DHT22;2782;52.362;10.012;2023-01-13T06:37:41;18.00;86.30
5520;DHT22;2782;52.362;10.012;2023-01-13T06:38:47;17.90;86.90
5520;DHT22;2782;52.362;10.012;2023-01-13T06:39:50;18.00;87.30
5520;DHT22;2782;52.362;10.012;2023-01-13T06:40:51;18.00;87.60
5520;DHT22;2782;52.362;10.012;2023-01-13T06:41:53;18.00;87.80
5520;DHT22;2782;52.362;10.012;2023-01-13T06:43:13;18.00;88.00
5520;DHT22;2782;52.362;10.012;2023-01-13T06:44:16;18.00;87.80
5520;DHT22;2782;52.362;10.012;2023-01-13T06:45:18;18.00;87.90
5520;DHT22;2782;52.362;10.012;2023-01-13T06:46:19;18.00;87.90
5520;DHT22;2782;52.362;10.012;2023-01-13T06:47:20;18.00;87.30
5520;DHT22;2782;52.362;10.012;2023-01-13T06:48:25;18.00;87.00
5520;DHT22;2782;52.362;10.012;2023-01-13T06:49:27;18.10;87.50
5520;DHT22;2782;52.362;10.012;2023-01-13T06:50:29;18.10;87.40
5520;DHT22;2782;52.362;10.012;2023-01-13T06:51:30;18.10;87.10
5520;DHT22;2782;52.362;10.012;2023-01-13T06:52:31;18.10;86.90
5520;DHT22;2782;52.362;10.012;2023-01-13T06:53:32;18.10;86.70
5520;DHT22;2782;52.362;10.012;2023-01-13T06:54:35;18.10;85.90
5520;DHT22;2782;52.362;10.012;2023-01-13T06:55:36;18.10;85.30
5520;DHT22;2782;52.362;10.012;2023-01-13T06:56:37;18.10;85.10
5520;DHT22;2782;52.362;10.012;2023-01-13T06:57:49;18.10;84.70
5520;DHT22;2782;52.362;10.012;2023-01-13T06:58:51;18.10;85.40
5520;DHT22;2782;52.362;10.012;2023-01-13T06:59:52;18.10;85.00
5520;DHT22;2782;52.362;10.012;2023-01-13T07:00:56;18.10;85.20
5520;DHT22;2782;52.362;10.012;2023-01-13T07:01:59;18.10;85.20